Time;durP1;ratioP1;P1;durP2;ratioP2;P2;SDS_P1;SDS_P2;PMS_P1;PMS_P2;Temp;Humidity;BMP_temperature;BMP_pressure;BME280_temperature;BME280_humidity;BME280_pressure;Samples;Min_cycle;Max_cycle;Signal;HPM_P1;HPM_P2
2022/10/12 00:01:45;;;;;;;11.40;3.90;;;12.20;99.90;;;;;;5111446;28;20075;-53
2022/10/12 00:04:12;;;;;;;14.93;4.43;;;12.20;99.90;;;;;;5100499;28;20097;-50
2022/10/12 00:06:38;;;;;;;12.77;3.97;;;12.20;99.90;;;;;;5090773;28;20071;-52
2022/10/12 00:09:05;;;;;;;9.98;4.30;;;12.20;99.90;;;;;;5090935;28;20472;-51
2022/10/12 00:11:32;;;;;;;10.07;3.95;;;12.10;99.90;;;;;;5095355;28;20492;-53
2022/10/12 00:13:59;;;;;;;13.27;5.13;;;12.10;99.90;;;;;;5101912;28;20044;-50
2022/10/12 00:16:30;;;;;;;14.20;4.97;;;12.10;99.90;;;;;;5090171;28;20067;-51
2022/10/12 00:18:58;;;;;;;14.02;4.78;;;12.00;99.90;;;;;;5096159;28;20067;-51
2022/10/12 00:21:26;;;;;;;8.48;4.97;;;12.00;99.90;;;;;;5090644;28;20067;-53
2022/10/12 00:23:59;;;;;;;12.80;4.30;;;11.90;99.90;;;;;;5071763;28;20072;-51
2022/10/12 00:26:27;;;;;;;11.73;4.72;;;11.90;99.90;;;;;;5097657;28;20102;-51
2022/10/12 00:28:59;;;;;;;9.85;4.60;;;11.90;99.90;;;;;;5095905;28;20512;-51
2022/10/12 00:31:27;;;;;;;9.85;4.57;;;11.90;99.90;;;;;;5092220;28;20133;-50
2022/10/12 00:33:54;;;;;;;14.00;5.68;;;11.90;99.90;;;;;;5098863;28;20066;-50
2022/10/12 00:36:23;;;;;;;12.07;4.38;;;11.90;99.90;;;;;;5095032;28;20070;-50
2022/10/12 00:38:53;;;;;;;11.25;4.57;;;11.90;99.90;;;;;;5094697;28;20131;-55
2022/10/12 00:41:22;;;;;;;9.02;4.72;;;11.90;99.90;;;;;;5109692;28;20131;-54
2022/10/12 00:43:50;;;;;;;20.30;4.35;;;11.90;99.90;;;;;;5114574;28;20093;-51
2022/10/12 00:46:34;;;;;;;10.30;4.30;;;11.90;99.90;;;;;;5113639;28;20040;-51
2022/10/12 00:49:19;;;;;;;12.20;4.17;;;11.90;99.90;;;;;;5113358;28;20086;-50
2022/10/12 00:51:50;;;;;;;12.02;4.25;;;12.00;99.90;;;;;;5100071;28;20039;-51
2022/10/12 00:54:26;;;;;;;10.02;3.90;;;11.90;99.90;;;;;;5113755;28;20036;-52
2022/10/12 00:56:55;;;;;;;8.45;3.13;;;11.90;99.90;;;;;;5114851;28;20040;-51
2022/10/12 00:59:29;;;;;;;8.52;4.25;;;11.90;99.90;;;;;;5113323;28;20078;-51
2022/10/12 01:01:56;;;;;;;12.30;3.50;;;11.90;99.90;;;;;;5114707;28;20071;-51
2022/10/12 01:04:23;;;;;;;6.82;3.17;;;11.90;99.90;;;;;;5102016;28;20040;-51
2022/10/12 01:06:51;;;;;;;;;;;11.80;99.90;;;;;;5099201;28;20093;-53
2022/10/12 01:09:19;;;;;;;7.93;3.33;;;11.80;99.90;;;;;;5092674;28;20426;-51
2022/10/12 01:11:46;;;;;;;14.07;3.95;;;11.80;99.90;;;;;;5093964;28;20078;-50
2022/10/12 01:14:13;;;;;;;8.43;3.83;;;11.80;99.90;;;;;;5098095;28;20112;-50
2022/10/12 01:16:45;;;;;;;11.50;3.58;;;11.80;99.90;;;;;;5094201;28;20064;-51
2022/10/12 01:19:21;;;;;;;11.82;4.15;;;11.80;99.90;;;;;;5093753;28;20071;-50
2022/10/12 01:22:00;;;;;;;7.85;3.30;;;11.80;99.90;;;;;;5098484;28;20461;-51
2022/10/12 01:24:39;;;;;;;8.32;3.58;;;11.80;99.90;;;;;;5093542;28;20097;-51
2022/10/12 01:27:31;;;;;;;6.85;4.10;;;11.80;99.90;;;;;;5093997;28;20043;-51
2022/10/12 01:30:07;;;;;;;10.50;4.15;;;11.80;99.90;;;;;;5098542;28;20101;-51
2022/10/12 01:33:21;;;;;;;8.63;3.90;;;11.90;99.90;;;;;;5105995;28;20077;-51
2022/10/12 01:36:04;;;;;;;7.35;3.60;;;11.90;99.90;;;;;;5104755;28;20052;-50
2022/10/12 01:38:42;;;;;;;10.77;3.33;;;11.90;99.90;;;;;;5108881;28;20067;-51
2022/10/12 01:41:27;;;;;;;9.25;4.55;;;11.90;99.90;;;;;;5093202;28;20075;-52
2022/10/12 01:43:54;;;;;;;5.68;3.08;;;11.90;99.90;;;;;;5091988;28;20101;-51
2022/10/12 01:46:23;;;;;;;9.50;3.10;;;11.90;99.90;;;;;;5095260;28;20106;-52
2022/10/12 01:48:54;;;;;;;5.07;3.00;;;11.90;99.90;;;;;;5098612;28;20085;-50
2022/10/12 01:51:50;;;;;;;5.32;3.45;;;11.90;99.90;;;;;;5093080;28;20109;-51
2022/10/12 01:54:22;;;;;;;8.77;3.45;;;12.00;99.90;;;;;;5106480;28;20459;-51
2022/10/12 01:57:04;;;;;;;11.68;3.55;;;11.90;99.90;;;;;;5113509;28;20071;-52
2022/10/12 01:59:38;;;;;;;19.15;4.25;;;12.00;99.90;;;;;;5112905;28;20078;-53
2022/10/12 02:02:13;;;;;;;9.43;3.85;;;11.90;99.90;;;;;;5112165;28;20555;-51
2022/10/12 02:04:50;;;;;;;13.70;4.25;;;11.80;99.90;;;;;;5099777;28;20561;-51
2022/10/12 02:07:36;;;;;;;12.60;3.17;;;11.80;99.90;;;;;;5093039;28;20074;-52
2022/10/12 02:10:10;;;;;;;18.30;3.15;;;11.70;99.90;;;;;;5098412;28;20075;-53
2022/10/12 02:12:40;;;;;;;13.23;5.82;;;11.70;99.90;;;;;;5097499;28;20078;-54
2022/10/12 02:15:09;;;;;;;10.48;3.70;;;11.70;99.90;;;;;;5092245;28;20071;-53
2022/10/12 02:17:38;;;;;;;16.48;3.47;;;11.70;99.90;;;;;;5095519;28;20067;-54
2022/10/12 02:20:10;;;;;;;13.50;4.18;;;11.70;99.90;;;;;;5092386;28;20043;-54
2022/10/12 02:22:39;;;;;;;10.88;3.85;;;11.70;99.90;;;;;;5092480;28;20097;-52
2022/10/12 02:25:09;;;;;;;7.00;3.83;;;11.80;99.90;;;;;;5103666;28;20488;-51
2022/10/12 02:27:40;;;;;;;10.70;3.05;;;11.80;99.90;;;;;;5113046;28;20040;-51
2022/10/12 02:30:08;;;;;;;10.20;3.55;;;11.80;99.90;;;;;;5112705;28;20071;-52
2022/10/12 02:32:41;;;;;;;9.57;3.55;;;11.80;99.90;;;;;;5112557;28;20071;-55
2022/10/12 02:35:15;;;;;;;13.52;3.58;;;11.70;99.90;;;;;;5092002;28;20093;-52
2022/10/12 02:37:56;;;;;;;7.80;3.50;;;11.70;99.90;;;;;;5092327;28;20040;-52
2022/10/12 02:40:36;;;;;;;12.23;3.45;;;11.70;99.90;;;;;;5092495;28;20063;-53
2022/10/12 02:43:28;;;;;;;10.00;3.33;;;11.60;99.90;;;;;;5112319;28;20043;-53
2022/10/12 02:45:57;;;;;;;8.60;4.00;;;11.70;99.90;;;;;;5110530;28;20044;-50
2022/10/12 02:48:25;;;;;;;10.50;4.15;;;11.60;99.90;;;;;;5100340;28;20089;-54
2022/10/12 02:50:55;;;;;;;7.57;3.25;;;11.60;99.90;;;;;;5106321;28;20120;-51
2022/10/12 02:53:24;;;;;;;13.00;3.45;;;11.70;99.90;;;;;;5111414;28;20133;-52
2022/10/12 02:55:58;;;;;;;9.63;3.95;;;11.80;99.90;;;;;;5108518;28;20067;-53
2022/10/12 02:58:49;;;;;;;11.48;3.28;;;11.80;99.90;;;;;;5113214;22;20040;-49
2022/10/12 03:04:28;;;;;;;13.07;3.53;;;11.70;99.90;;;;;;5070332;28;20056;-48
2022/10/12 03:06:55;;;;;;;8.00;3.63;;;11.70;99.90;;;;;;5071819;28;20072;-48
2022/10/12 03:09:21;;;;;;;8.18;3.92;;;11.70;99.90;;;;;;5085842;28;20485;-48
2022/10/12 03:11:48;;;;;;;6.68;3.85;;;11.90;99.90;;;;;;5077620;28;20501;-48
2022/10/12 03:14:16;;;;;;;12.30;4.13;;;11.70;99.90;;;;;;5070280;28;20072;-48
2022/10/12 03:16:45;;;;;;;7.22;3.75;;;11.80;99.90;;;;;;5071574;28;20091;-48
2022/10/12 03:19:11;;;;;;;6.40;3.92;;;11.80;99.90;;;;;;5084604;28;20037;-47
2022/10/12 03:21:38;;;;;;;6.50;3.97;;;11.80;99.90;;;;;;5083840;28;20040;-48
2022/10/12 03:24:05;;;;;;;12.88;3.55;;;11.80;99.90;;;;;;5073864;28;20036;-48
2022/10/12 03:26:33;;;;;;;9.63;3.42;;;11.80;99.90;;;;;;5081764;28;20044;-47
2022/10/12 03:28:59;;;;;;;13.13;4.00;;;11.80;99.90;;;;;;5067824;28;20044;-48
2022/10/12 03:31:26;;;;;;;13.57;3.47;;;11.80;99.90;;;;;;5088757;28;20058;-48
2022/10/12 03:33:53;;;;;;;12.55;3.33;;;11.90;99.90;;;;;;5087781;28;20051;-50
2022/10/12 03:36:20;;;;;;;10.38;3.50;;;11.90;99.90;;;;;;5090707;28;20071;-48
2022/10/12 03:38:46;;;;;;;11.65;4.30;;;11.90;99.90;;;;;;5087681;28;20123;-49
2022/10/12 03:41:13;;;;;;;5.10;3.55;;;11.90;99.90;;;;;;5079999;28;20032;-48
2022/10/12 03:43:40;;;;;;;8.20;3.20;;;11.90;99.90;;;;;;5077874;28;20040;-49
2022/10/12 03:46:06;;;;;;;4.90;3.05;;;11.90;99.90;;;;;;5072783;28;20072;-48
2022/10/12 03:48:33;;;;;;;9.10;3.90;;;11.90;99.90;;;;;;5078184;28;20040;-49
2022/10/12 03:51:00;;;;;;;11.15;3.67;;;11.90;99.90;;;;;;5082284;28;20040;-48
2022/10/12 03:53:27;;;;;;;10.23;4.07;;;11.90;99.90;;;;;;5081816;28;20036;-48
2022/10/12 03:55:53;;;;;;;15.60;4.05;;;11.90;99.90;;;;;;5084504;28;20036;-48
2022/10/12 03:58:20;;;;;;;13.10;3.67;;;11.90;99.90;;;;;;5074483;28;20454;-48
2022/10/12 04:00:52;;;;;;;8.40;4.20;;;11.90;99.90;;;;;;5074281;28;20064;-49
2022/10/12 04:03:18;;;;;;;7.15;3.30;;;11.80;99.90;;;;;;5073118;28;20372;-47
2022/10/12 04:05:53;;;;;;;7.35;3.53;;;11.90;99.90;;;;;;5073931;28;20508;-48
2022/10/12 04:08:20;;;;;;;9.50;3.78;;;11.90;99.90;;;;;;5092702;28;20044;-49
2022/10/12 04:10:47;;;;;;;12.23;4.07;;;11.80;99.90;;;;;;5093596;28;20074;-48
2022/10/12 04:13:13;;;;;;;5.82;3.15;;;11.80;99.90;;;;;;5084091;28;20123;-48
2022/10/12 04:15:40;;;;;;;8.52;3.85;;;11.80;99.90;;;;;;5080354;28;20068;-47
2022/10/12 04:18:07;;;;;;;11.70;3.30;;;11.80;99.90;;;;;;5093357;28;20572;-49
2022/10/12 04:20:33;;;;;;;7.25;3.15;;;11.80;99.90;;;;;;5093047;28;20093;-48
2022/10/12 04:23:00;;;;;;;8.80;3.88;;;11.80;99.90;;;;;;5083279;28;20462;-49
2022/10/12 04:25:27;;;;;;;9.55;3.55;;;11.80;99.90;;;;;;5076063;28;20066;-48
2022/10/12 04:27:56;;;;;;;13.93;3.78;;;11.80;99.90;;;;;;5088376;28;20039;-48
2022/10/12 04:30:22;;;;;;;13.10;3.72;;;11.80;99.90;;;;;;5085155;28;20033;-49
2022/10/12 04:32:51;;;;;;;14.65;4.15;;;11.90;99.90;;;;;;5093362;28;20043;-49
2022/10/12 04:35:17;;;;;;;6.75;3.47;;;11.90;99.90;;;;;;5092241;28;20101;-50
2022/10/12 04:37:44;;;;;;;12.30;3.97;;;11.90;99.90;;;;;;5091872;28;20068;-48
2022/10/12 04:40:11;;;;;;;8.10;3.78;;;12.00;99.90;;;;;;5077147;28;20064;-48
2022/10/12 04:42:37;;;;;;;11.98;3.83;;;12.00;99.90;;;;;;5074497;28;20064;-51
2022/10/12 04:45:05;;;;;;;8.27;3.83;;;12.00;99.90;;;;;;5074051;28;20524;-50
2022/10/12 04:47:33;;;;;;;15.20;4.50;;;12.00;99.90;;;;;;5087133;28;20068;-48
2022/10/12 04:50:00;;;;;;;12.38;4.10;;;12.00;99.90;;;;;;5081928;28;20058;-50
2022/10/12 04:52:27;;;;;;;11.52;5.22;;;12.00;99.90;;;;;;5093713;28;20047;-47
2022/10/12 04:54:54;;;;;;;10.90;4.32;;;12.10;99.90;;;;;;5093275;28;20064;-48
2022/10/12 04:57:21;;;;;;;9.90;4.07;;;12.10;99.90;;;;;;5081931;28;20486;-50
2022/10/12 04:59:47;;;;;;;11.50;4.95;;;12.10;99.90;;;;;;5082548;28;20051;-48
2022/10/12 05:02:14;;;;;;;6.90;3.75;;;12.10;99.90;;;;;;5087942;28;20048;-48
2022/10/12 05:04:41;;;;;;;18.00;4.43;;;12.10;99.90;;;;;;5087355;28;20071;-50
2022/10/12 05:07:08;;;;;;;9.40;4.18;;;12.10;99.90;;;;;;5093381;28;20109;-48
2022/10/12 05:09:34;;;;;;;9.30;3.70;;;12.10;99.90;;;;;;5093194;28;20044;-49
2022/10/12 05:12:01;;;;;;;13.38;5.13;;;12.10;99.90;;;;;;5077992;28;20754;-48
2022/10/12 05:14:28;;;;;;;9.75;4.53;;;12.00;99.90;;;;;;5088148;28;20059;-49
2022/10/12 05:17:01;;;;;;;10.75;3.85;;;12.10;99.90;;;;;;5089829;28;20036;-49
2022/10/12 05:19:28;;;;;;;16.65;4.63;;;12.10;99.90;;;;;;5090622;28;20074;-49
2022/10/12 05:21:55;;;;;;;11.57;4.18;;;12.10;99.90;;;;;;5075274;28;20458;-50
2022/10/12 05:24:22;;;;;;;9.43;5.03;;;12.10;99.90;;;;;;5081881;28;20524;-48
2022/10/12 05:26:48;;;;;;;8.50;4.50;;;12.10;99.90;;;;;;5078187;28;20048;-48
2022/10/12 05:29:15;;;;;;;5.70;3.58;;;12.10;99.90;;;;;;5075729;28;20037;-49
2022/10/12 05:31:42;;;;;;;14.90;5.22;;;12.10;99.90;;;;;;5087071;28;20070;-50
2022/10/12 05:34:08;;;;;;;18.80;6.75;;;12.10;99.90;;;;;;5075015;28;20068;-51
2022/10/12 05:36:35;;;;;;;10.95;6.38;;;12.10;99.90;;;;;;5073638;28;20068;-49
2022/10/12 05:39:02;;;;;;;14.15;5.68;;;12.20;99.90;;;;;;5079501;28;20032;-50
2022/10/12 05:41:29;;;;;;;11.48;5.55;;;12.20;99.90;;;;;;5079879;28;20033;-48
2022/10/12 05:43:56;;;;;;;7.85;4.18;;;12.20;99.90;;;;;;5072858;28;20501;-49
2022/10/12 05:46:22;;;;;;;12.75;4.28;;;12.20;99.90;;;;;;5072103;28;20105;-47
2022/10/12 05:48:49;;;;;;;10.35;4.68;;;12.10;99.90;;;;;;5080330;28;20070;-48
2022/10/12 05:51:16;;;;;;;10.75;3.97;;;12.10;99.90;;;;;;5085069;28;20051;-48
2022/10/12 05:53:43;;;;;;;12.45;4.07;;;12.10;99.90;;;;;;5093092;28;20126;-48
2022/10/12 05:56:09;;;;;;;11.18;3.92;;;12.10;99.90;;;;;;5083078;28;20072;-48
2022/10/12 05:58:36;;;;;;;18.88;4.53;;;12.10;99.90;;;;;;5093235;28;20080;-48
2022/10/12 06:01:08;;;;;;;10.10;3.90;;;12.10;99.90;;;;;;5092437;28;20493;-50
2022/10/12 06:03:35;;;;;;;17.80;3.97;;;12.10;99.90;;;;;;5092884;28;20036;-48
2022/10/12 06:06:03;;;;;;;9.75;3.80;;;12.10;99.90;;;;;;5084438;28;20064;-49
2022/10/12 06:08:31;;;;;;;9.95;4.78;;;12.10;99.90;;;;;;5091763;28;20044;-48
2022/10/12 06:10:57;;;;;;;9.90;4.68;;;12.10;99.90;;;;;;5091933;28;20087;-48
2022/10/12 06:13:24;;;;;;;8.77;4.32;;;12.10;99.90;;;;;;5073930;28;20040;-48
2022/10/12 06:15:51;;;;;;;6.18;3.78;;;12.10;99.90;;;;;;5074908;28;20078;-48
2022/10/12 06:18:18;;;;;;;12.50;4.05;;;12.20;99.90;;;;;;5082421;28;20548;-47
2022/10/12 06:20:51;;;;;;;8.82;4.38;;;12.20;99.90;;;;;;5071654;28;20072;-48
2022/10/12 06:23:38;;;;;;;12.55;4.07;;;12.30;99.90;;;;;;5072426;28;20128;-47
2022/10/12 06:26:05;;;;;;;11.52;4.28;;;12.40;99.90;;;;;;5076643;28;20097;-48
2022/10/12 06:28:31;;;;;;;15.02;3.97;;;12.50;99.90;;;;;;5071832;28;20072;-48
2022/10/12 06:30:59;;;;;;;10.02;3.97;;;12.50;99.90;;;;;;5070943;28;20098;-49
2022/10/12 06:33:27;;;;;;;10.63;4.13;;;12.60;99.90;;;;;;5078558;28;20105;-48
2022/10/12 06:35:55;;;;;;;10.40;4.25;;;12.60;99.90;;;;;;5082633;28;20065;-48
2022/10/12 06:38:22;;;;;;;11.73;3.83;;;12.70;99.90;;;;;;5092361;28;20040;-48
2022/10/12 06:40:49;;;;;;;9.90;4.10;;;12.70;99.90;;;;;;5091224;28;20063;-48
2022/10/12 06:43:16;;;;;;;6.47;4.07;;;12.70;99.90;;;;;;5089947;28;20097;-50
2022/10/12 06:45:42;;;;;;;11.77;5.10;;;12.70;99.90;;;;;;5091140;28;20128;-48
2022/10/12 06:48:09;;;;;;;15.95;4.93;;;12.70;99.90;;;;;;5091217;28;20079;-49
2022/10/12 06:50:41;;;;;;;11.18;5.03;;;12.60;99.90;;;;;;5091279;28;20044;-48
2022/10/12 06:53:08;;;;;;;12.52;4.90;;;12.70;99.90;;;;;;5059826;28;20658;-48
2022/10/12 06:55:38;;;;;;;9.05;4.88;;;12.80;99.90;;;;;;5070564;28;20131;-48
2022/10/12 06:58:05;;;;;;;12.80;5.07;;;12.70;99.90;;;;;;5073206;28;20159;-49
2022/10/12 07:00:32;;;;;;;12.02;4.97;;;12.80;99.90;;;;;;5078586;28;20067;-50
2022/10/12 07:02:58;;;;;;;14.88;5.22;;;12.90;99.90;;;;;;5071491;28;20087;-48
2022/10/12 07:05:26;;;;;;;11.13;4.85;;;12.90;99.90;;;;;;5087077;28;20109;-48
2022/10/12 07:07:52;;;;;;;13.30;4.68;;;12.90;99.90;;;;;;5086009;28;20558;-48
2022/10/12 07:10:19;;;;;;;10.07;4.30;;;12.90;99.90;;;;;;5091694;28;20051;-49
2022/10/12 07:12:47;;;;;;;12.13;4.63;;;12.90;99.90;;;;;;5092196;28;20127;-47
2022/10/12 07:15:14;;;;;;;10.02;4.93;;;12.90;99.90;;;;;;5082464;28;20074;-48
2022/10/12 07:17:41;;;;;;;16.60;4.43;;;13.00;99.90;;;;;;5091739;28;20093;-49
2022/10/12 07:20:07;;;;;;;10.15;5.18;;;13.00;99.90;;;;;;5081626;28;20071;-48
2022/10/12 07:22:34;;;;;;;11.00;5.18;;;13.10;99.90;;;;;;5071451;28;20098;-48
2022/10/12 07:25:01;;;;;;;9.18;5.45;;;13.10;99.90;;;;;;5071082;28;20448;-50
2022/10/12 07:27:28;;;;;;;14.98;5.47;;;13.10;99.90;;;;;;5081504;28;20456;-48
2022/10/12 07:29:55;;;;;;;16.55;6.63;;;13.10;99.90;;;;;;5083113;28;20079;-48
2022/10/12 07:32:21;;;;;;;20.17;6.65;;;13.10;99.90;;;;;;5088855;28;20450;-48
2022/10/12 07:34:48;;;;;;;12.57;5.15;;;13.10;99.90;;;;;;5084651;28;20490;-48
2022/10/12 07:37:15;;;;;;;13.23;5.50;;;13.20;99.90;;;;;;5090069;28;20082;-48
2022/10/12 07:39:42;;;;;;;13.52;4.25;;;13.20;99.90;;;;;;5077935;28;20051;-48
2022/10/12 07:42:09;;;;;;;14.18;4.65;;;13.20;99.90;;;;;;5079709;28;20452;-50
2022/10/12 07:44:35;;;;;;;7.50;4.28;;;13.20;99.90;;;;;;5090799;28;20069;-48
2022/10/12 07:47:02;;;;;;;9.43;5.18;;;13.30;99.90;;;;;;5090683;28;20083;-49
2022/10/12 07:49:29;;;;;;;7.90;5.88;;;13.30;99.90;;;;;;5086916;28;20040;-48
2022/10/12 07:51:56;;;;;;;18.08;6.68;;;13.40;99.90;;;;;;5071229;28;20079;-48
2022/10/12 07:54:22;;;;;;;23.10;7.82;;;13.40;99.90;;;;;;5070330;28;20131;-48
2022/10/12 07:56:55;;;;;;;18.35;7.18;;;13.50;99.90;;;;;;5077041;28;20070;-50
2022/10/12 07:59:22;;;;;;;17.05;7.85;;;13.50;99.90;;;;;;5072987;28;20473;-48
2022/10/12 08:01:48;;;;;;;21.20;8.23;;;13.70;99.90;;;;;;5077667;28;20041;-48
2022/10/12 08:04:15;;;;;;;14.95;7.65;;;13.90;99.90;;;;;;5069943;28;20493;-49
2022/10/12 08:06:42;;;;;;;21.45;6.78;;;14.00;99.90;;;;;;5070467;28;20036;-48
2022/10/12 08:09:09;;;;;;;16.10;7.13;;;14.10;99.90;;;;;;5070250;28;20041;-48
2022/10/12 08:11:38;;;;;;;18.02;7.53;;;14.20;99.90;;;;;;5077884;28;20071;-48
2022/10/12 08:14:10;;;;;;;14.20;7.07;;;14.20;99.90;;;;;;5070217;28;20079;-48
2022/10/12 08:16:37;;;;;;;17.60;7.90;;;14.20;99.90;;;;;;5076098;28;20493;-48
2022/10/12 08:19:04;;;;;;;15.45;8.13;;;14.20;99.90;;;;;;5070188;28;20098;-49
2022/10/12 08:21:31;;;;;;;24.00;8.18;;;14.10;99.90;;;;;;5070616;28;20049;-48
2022/10/12 08:23:57;;;;;;;14.93;7.80;;;14.20;99.90;;;;;;5070030;28;20451;-48
2022/10/12 08:26:24;;;;;;;13.15;7.47;;;14.30;99.90;;;;;;5082373;28;20509;-49
2022/10/12 08:28:51;;;;;;;17.75;7.68;;;14.50;99.90;;;;;;5089509;28;20072;-49
2022/10/12 08:31:18;;;;;;;15.85;7.75;;;14.60;99.90;;;;;;5085856;28;20483;-50
2022/10/12 08:33:45;;;;;;;16.38;7.75;;;14.60;99.90;;;;;;5069272;28;20048;-49
2022/10/12 08:36:12;;;;;;;16.92;8.00;;;14.80;99.90;;;;;;5069626;28;20076;-49
2022/10/12 08:38:39;;;;;;;14.82;8.10;;;15.10;99.90;;;;;;5070585;28;20513;-49
2022/10/12 08:41:25;;;;;;;15.88;7.95;;;15.10;99.90;;;;;;5086240;28;20098;-48
2022/10/12 08:43:57;;;;;;;17.35;7.70;;;15.00;99.90;;;;;;5075583;28;20060;-48
2022/10/12 08:46:25;;;;;;;13.63;7.82;;;14.80;99.90;;;;;;5070402;28;20106;-48
2022/10/12 08:49:12;;;;;;;16.92;6.97;;;14.80;99.90;;;;;;5075602;28;20044;-48
2022/10/12 08:51:47;;;;;;;14.20;7.00;;;14.80;99.90;;;;;;5070170;28;20098;-48
2022/10/12 08:54:19;;;;;;;15.95;7.70;;;15.10;99.90;;;;;;5073940;28;20153;-48
2022/10/12 08:56:45;;;;;;;15.60;7.63;;;15.40;99.90;;;;;;5081773;28;20075;-48
2022/10/12 08:59:18;;;;;;;16.58;6.95;;;15.60;99.90;;;;;;5090516;22;20068;-54
2022/10/12 09:02:12;;;;;;;13.30;8.02;;;15.60;99.90;;;;;;5084947;28;20044;-55
2022/10/12 09:05:00;;;;;;;21.95;8.27;;;15.60;99.90;;;;;;5086330;28;20068;-52
2022/10/12 09:07:46;;;;;;;16.23;7.53;;;15.70;99.90;;;;;;5090943;28;20129;-52
2022/10/12 09:10:25;;;;;;;14.40;6.93;;;16.00;99.90;;;;;;5073175;28;20095;-52
2022/10/12 09:12:55;;;;;;;16.08;7.47;;;16.30;99.90;;;;;;5064174;28;20073;-52
2022/10/12 09:15:27;;;;;;;16.60;7.60;;;16.40;99.90;;;;;;5071987;28;20148;-55
2022/10/12 09:17:55;;;;;;;18.80;7.88;;;16.30;99.90;;;;;;5073602;28;20032;-52
2022/10/12 09:20:27;;;;;;;13.10;7.03;;;16.20;99.90;;;;;;5073966;28;20048;-52
2022/10/12 09:23:16;;;;;;;15.02;6.90;;;16.30;99.90;;;;;;5070214;28;20124;-54
2022/10/12 09:25:42;;;;;;;18.73;7.68;;;16.50;99.90;;;;;;5073094;28;20090;-52
2022/10/12 09:28:19;;;;;;;14.82;7.97;;;16.60;99.90;;;;;;5073209;28;20406;-53
2022/10/12 09:31:13;;;;;;;11.90;7.60;;;16.80;99.90;;;;;;5061647;28;20053;-54
2022/10/12 09:33:50;;;;;;;14.05;6.82;;;16.80;99.90;;;;;;5065513;28;20079;-54
2022/10/12 09:36:21;;;;;;;14.88;7.63;;;16.80;99.90;;;;;;5065091;28;20094;-54
2022/10/12 09:38:49;;;;;;;12.63;7.60;;;16.80;99.90;;;;;;5072666;28;20068;-53
2022/10/12 09:41:29;;;;;;;15.45;7.32;;;17.00;99.90;;;;;;5072502;28;20072;-53
2022/10/12 09:43:59;;;;;;;11.75;6.82;;;16.90;99.90;;;;;;5054836;28;20044;-52
2022/10/12 09:46:44;;;;;;;12.68;7.22;;;17.10;99.90;;;;;;5070916;28;20102;-51
2022/10/12 09:49:11;;;;;;;15.77;7.20;;;17.20;99.90;;;;;;5055771;28;20049;-55
2022/10/12 09:51:38;;;;;;;16.90;7.53;;;17.20;99.90;;;;;;5065051;28;20045;-53
2022/10/12 09:54:05;;;;;;;15.05;6.85;;;17.20;99.90;;;;;;5072480;28;20041;-53
2022/10/12 09:56:45;;;;;;;12.10;7.88;;;17.20;99.90;;;;;;5072933;28;20523;-52
2022/10/12 09:59:36;;;;;;;15.43;6.13;;;17.30;99.90;;;;;;5068786;28;20041;-53
2022/10/12 10:02:17;;;;;;;13.98;7.28;;;17.60;99.90;;;;;;5055088;28;20402;-52
2022/10/12 10:04:46;;;;;;;20.30;6.88;;;17.60;99.90;;;;;;5071467;28;20086;-52
2022/10/12 10:07:19;;;;;;;14.65;7.93;;;17.60;99.90;;;;;;5065881;28;20493;-55
2022/10/12 10:09:47;;;;;;;12.48;6.90;;;17.60;99.90;;;;;;5072930;28;20405;-54
2022/10/12 10:12:25;;;;;;;14.52;6.50;;;17.60;99.90;;;;;;5071197;28;20477;-54
2022/10/12 10:14:55;;;;;;;13.80;6.00;;;17.60;99.90;;;;;;5066882;28;20386;-55
2022/10/12 10:17:31;;;;;;;13.25;6.65;;;17.60;99.90;;;;;;5071672;28;20033;-52
2022/10/12 10:20:02;;;;;;;17.02;6.60;;;17.50;99.90;;;;;;5072715;28;20053;-55
2022/10/12 10:22:29;;;;;;;19.73;7.32;;;17.50;99.90;;;;;;5070945;28;20524;-52
2022/10/12 10:24:57;;;;;;;;;;;17.40;99.90;;;;;;5057438;28;20418;-51
2022/10/12 10:27:28;;;;;;;14.80;6.82;;;17.30;99.90;;;;;;5052691;28;19924;-53
2022/10/12 10:30:13;;;;;;;12.85;6.45;;;17.20;99.90;;;;;;5058714;28;20098;-51
2022/10/12 10:33:16;;;;;;;16.55;6.55;;;17.20;99.90;;;;;;5072351;28;20119;-54
2022/10/12 10:36:03;;;;;;;11.35;7.00;;;16.90;99.90;;;;;;5071725;28;20087;-51
2022/10/12 10:38:43;;;;;;;12.95;6.40;;;16.70;99.90;;;;;;5055644;28;20044;-51
2022/10/12 10:41:16;;;;;;;18.65;6.10;;;16.80;99.90;;;;;;5054765;28;20076;-53
2022/10/12 10:43:47;;;;;;;16.83;6.03;;;16.90;99.90;;;;;;5050665;28;20076;-54
2022/10/12 10:46:15;;;;;;;15.25;6.43;;;17.00;99.90;;;;;;5067554;28;20044;-54
2022/10/12 10:49:20;;;;;;;15.93;6.13;;;17.00;99.90;;;;;;5071794;28;20051;-51
2022/10/12 10:51:53;;;;;;;15.82;7.65;;;16.90;99.90;;;;;;5072018;28;20068;-54
2022/10/12 10:54:27;;;;;;;14.40;8.10;;;17.00;99.90;;;;;;5054239;28;20076;-51
2022/10/12 10:56:59;;;;;;;15.35;7.57;;;17.00;99.90;;;;;;5071719;28;20036;-54
2022/10/12 10:59:29;;;;;;;17.25;7.90;;;17.00;99.90;;;;;;5053660;28;20090;-51
2022/10/12 11:02:01;;;;;;;15.07;8.07;;;16.80;99.90;;;;;;5071632;28;20501;-51
2022/10/12 11:04:38;;;;;;;15.15;7.72;;;16.80;99.90;;;;;;5062788;28;20047;-53
2022/10/12 11:07:34;;;;;;;19.77;8.13;;;16.80;99.90;;;;;;5071618;28;20044;-54
2022/10/12 11:10:07;;;;;;;18.63;7.72;;;16.80;99.90;;;;;;5071324;28;20068;-52
2022/10/12 11:12:41;;;;;;;14.75;7.22;;;16.80;99.90;;;;;;5066042;28;20090;-55
2022/10/12 11:15:18;;;;;;;19.88;6.60;;;16.90;99.90;;;;;;5067293;28;20064;-51
2022/10/12 11:17:56;;;;;;;12.13;6.88;;;16.90;99.90;;;;;;5070545;28;20070;-53
2022/10/12 11:20:41;;;;;;;18.15;7.82;;;16.90;99.90;;;;;;5071658;28;20037;-54
2022/10/12 11:23:40;;;;;;;14.00;7.30;;;16.90;99.90;;;;;;5068421;28;20098;-53
2022/10/12 11:26:23;;;;;;;18.30;7.57;;;16.90;99.90;;;;;;5051306;28;20061;-51
2022/10/12 11:28:53;;;;;;;16.17;7.30;;;17.00;99.90;;;;;;5050880;28;20076;-55
2022/10/12 11:31:30;;;;;;;21.38;8.32;;;17.00;99.90;;;;;;5059481;28;20094;-51
2022/10/12 11:34:02;;;;;;;15.15;7.55;;;17.00;99.90;;;;;;5050386;28;20497;-54
2022/10/12 11:36:31;;;;;;;15.88;8.63;;;17.00;99.90;;;;;;5066555;28;20489;-53
2022/10/12 11:39:02;;;;;;;17.80;8.57;;;17.00;99.90;;;;;;5069626;28;20056;-52
2022/10/12 11:41:46;;;;;;;18.13;8.85;;;17.00;99.90;;;;;;5070666;28;20071;-52
2022/10/12 11:44:43;;;;;;;22.98;10.57;;;16.90;99.90;;;;;;5051334;28;21403;-53
2022/10/12 11:47:29;;;;;;;17.60;9.75;;;16.80;99.90;;;;;;5067931;28;20052;-51
2022/10/12 11:50:04;;;;;;;19.80;9.45;;;16.80;99.90;;;;;;5070190;28;20076;-55
2022/10/12 11:52:42;;;;;;;21.38;10.10;;;16.80;99.90;;;;;;5071111;28;20036;-51
2022/10/12 11:55:27;;;;;;;14.93;8.55;;;16.80;99.90;;;;;;5066745;28;20554;-55
2022/10/12 11:57:58;;;;;;;21.38;9.43;;;16.80;99.90;;;;;;5056166;28;20041;-51
2022/10/12 12:00:46;;;;;;;20.35;9.25;;;16.80;99.90;;;;;;5050300;28;20041;-54
2022/10/12 12:03:37;;;;;;;19.70;8.85;;;16.70;99.90;;;;;;5068539;28;20052;-52
2022/10/12 12:06:29;;;;;;;20.92;9.82;;;16.70;99.90;;;;;;5070207;28;20059;-53
2022/10/12 12:09:02;;;;;;;19.88;9.68;;;16.70;99.90;;;;;;5068416;28;20044;-52
2022/10/12 12:11:31;;;;;;;21.13;10.10;;;16.70;99.90;;;;;;5059644;28;20099;-52
2022/10/12 12:14:20;;;;;;;18.35;9.73;;;16.60;99.90;;;;;;5049738;28;20094;-54
2022/10/12 12:16:48;;;;;;;21.55;10.40;;;16.50;99.90;;;;;;5050595;28;20087;-52
2022/10/12 12:19:35;;;;;;;20.85;9.18;;;16.50;99.90;;;;;;5050683;28;20065;-53
2022/10/12 12:22:22;;;;;;;18.85;9.52;;;16.50;99.90;;;;;;5050376;28;20076;-52
2022/10/12 12:25:09;;;;;;;22.55;9.85;;;16.50;99.90;;;;;;5064543;28;20551;-53
2022/10/12 12:27:41;;;;;;;18.73;10.27;;;16.50;99.90;;;;;;5073150;28;20048;-52
2022/10/12 12:30:16;;;;;;;16.60;9.40;;;16.50;99.90;;;;;;5066424;28;20098;-53
2022/10/12 12:32:46;;;;;;;19.10;10.55;;;16.50;99.90;;;;;;5074477;28;20044;-53
2022/10/12 12:35:24;;;;;;;27.13;10.40;;;16.60;99.90;;;;;;5074249;28;20036;-52
2022/10/12 12:38:06;;;;;;;25.73;10.25;;;16.60;99.90;;;;;;5068243;28;20072;-53
2022/10/12 12:40:33;;;;;;;25.85;10.40;;;16.60;99.90;;;;;;5066475;28;20040;-51
2022/10/12 12:43:27;;;;;;;20.15;10.15;;;16.60;99.90;;;;;;5073709;28;20068;-54
2022/10/12 12:45:57;;;;;;;24.40;9.93;;;16.50;99.90;;;;;;5065853;28;20049;-54
2022/10/12 12:48:41;;;;;;;17.40;9.57;;;16.50;99.90;;;;;;5074171;28;20102;-53
2022/10/12 12:51:17;;;;;;;17.55;9.40;;;16.40;99.90;;;;;;5073577;28;20041;-51
2022/10/12 12:54:03;;;;;;;16.27;9.77;;;16.40;99.90;;;;;;5068097;28;20053;-53
2022/10/12 12:56:42;;;;;;;17.70;9.18;;;16.40;99.90;;;;;;5073767;28;20101;-54
2022/10/12 12:59:45;;;;;;;24.23;10.13;;;16.40;99.90;;;;;;5055816;28;20040;-53
2022/10/12 13:02:30;;;;;;;25.40;11.57;;;16.40;99.90;;;;;;5072255;28;20086;-54
2022/10/12 13:05:32;;;;;;;18.77;10.05;;;16.30;99.90;;;;;;5065055;28;20497;-53
2022/10/12 13:08:14;;;;;;;21.55;9.90;;;16.40;99.90;;;;;;5073541;28;20408;-51